sensor_id;sensor_type;location;lat;lon;timestamp;P1;durP1;ratioP1;P2;durP2;ratioP2
18224;SDS011;9237;48.590;8.854;2022-09-04T00:00:21;0.60;;;0.60;;
18224;SDS011;9237;48.590;8.854;2022-09-04T00:02:51;0.60;;;0.60;;
18224;SDS011;9237;48.590;8.854;2022-09-04T00:05:32;0.60;;;0.60;;
18224;SDS011;9237;48.590;8.854;2022-09-04T00:08:06;0.63;;;0.63;;
18224;SDS011;9237;48.590;8.854;2022-09-04T00:10:48;0.60;;;0.60;;
18224;SDS011;9237;48.590;8.854;2022-09-04T00:13:19;0.70;;;0.70;;
18224;SDS011;9237;48.590;8.854;2022-09-04T00:15:53;0.70;;;0.70;;
18224;SDS011;9237;48.590;8.854;2022-09-04T00:18:28;0.70;;;0.70;;
18224;SDS011;9237;48.590;8.854;2022-09-04T00:21:00;0.70;;;0.70;;
18224;SDS011;9237;48.590;8.854;2022-09-04T00:23:34;0.60;;;0.60;;
18224;SDS011;9237;48.590;8.854;2022-09-04T00:26:05;0.60;;;0.60;;
18224;SDS011;9237;48.590;8.854;2022-09-04T00:28:39;0.70;;;0.70;;
18224;SDS011;9237;48.590;8.854;2022-09-04T00:31:13;0.70;;;0.70;;
18224;SDS011;9237;48.590;8.854;2022-09-04T00:33:51;0.70;;;0.70;;
18224;SDS011;9237;48.590;8.854;2022-09-04T00:36:23;0.70;;;0.70;;
18224;SDS011;9237;48.590;8.854;2022-09-04T00:38:54;0.67;;;0.67;;
18224;SDS011;9237;48.590;8.854;2022-09-04T00:41:26;0.63;;;0.63;;
18224;SDS011;9237;48.590;8.854;2022-09-04T00:44:00;0.70;;;0.70;;
18224;SDS011;9237;48.590;8.854;2022-09-04T00:50:03;0.70;;;0.70;;
18224;SDS011;9237;48.590;8.854;2022-09-04T00:52:47;0.60;;;0.60;;
18224;SDS011;9237;48.590;8.854;2022-09-04T00:55:33;0.70;;;0.70;;
18224;SDS011;9237;48.590;8.854;2022-09-04T00:58:14;0.70;;;0.70;;
18224;SDS011;9237;48.590;8.854;2022-09-04T01:00:52;0.70;;;0.70;;
18224;SDS011;9237;48.590;8.854;2022-09-04T01:06:24;0.70;;;0.70;;
18224;SDS011;9237;48.590;8.854;2022-09-04T01:09:05;0.63;;;0.63;;
18224;SDS011;9237;48.590;8.854;2022-09-04T01:11:48;0.67;;;0.67;;
18224;SDS011;9237;48.590;8.854;2022-09-04T01:14:27;0.70;;;0.70;;
18224;SDS011;9237;48.590;8.854;2022-09-04T01:17:07;0.60;;;0.60;;
18224;SDS011;9237;48.590;8.854;2022-09-04T01:19:46;0.60;;;0.60;;
18224;SDS011;9237;48.590;8.854;2022-09-04T01:22:32;0.63;;;0.63;;
18224;SDS011;9237;48.590;8.854;2022-09-04T01:25:26;0.70;;;0.70;;
18224;SDS011;9237;48.590;8.854;2022-09-04T01:28:02;0.70;;;0.70;;
18224;SDS011;9237;48.590;8.854;2022-09-04T01:30:33;0.70;;;0.70;;
18224;SDS011;9237;48.590;8.854;2022-09-04T01:33:09;0.70;;;0.70;;
18224;SDS011;9237;48.590;8.854;2022-09-04T01:35:53;0.70;;;0.70;;
18224;SDS011;9237;48.590;8.854;2022-09-04T01:38:30;0.70;;;0.70;;
18224;SDS011;9237;48.590;8.854;2022-09-04T01:41:03;0.70;;;0.70;;
18224;SDS011;9237;48.590;8.854;2022-09-04T01:43:38;0.70;;;0.70;;
18224;SDS011;9237;48.590;8.854;2022-09-04T01:46:12;0.70;;;0.70;;
18224;SDS011;9237;48.590;8.854;2022-09-04T01:49:04;0.70;;;0.70;;
18224;SDS011;9237;48.590;8.854;2022-09-04T01:51:39;0.70;;;0.70;;
18224;SDS011;9237;48.590;8.854;2022-09-04T01:54:22;0.70;;;0.70;;
18224;SDS011;9237;48.590;8.854;2022-09-04T01:57:03;0.70;;;0.70;;
18224;SDS011;9237;48.590;8.854;2022-09-04T01:59:42;0.70;;;0.70;;
18224;SDS011;9237;48.590;8.854;2022-09-04T02:02:19;0.70;;;0.70;;
18224;SDS011;9237;48.590;8.854;2022-09-04T02:04:57;0.60;;;0.60;;
18224;SDS011;9237;48.590;8.854;2022-09-04T02:07:27;0.70;;;0.70;;
18224;SDS011;9237;48.590;8.854;2022-09-04T02:10:00;0.70;;;0.70;;
18224;SDS011;9237;48.590;8.854;2022-09-04T02:12:36;0.70;;;0.70;;
18224;SDS011;9237;48.590;8.854;2022-09-04T02:15:17;0.70;;;0.70;;
18224;SDS011;9237;48.590;8.854;2022-09-04T02:17:55;0.70;;;0.70;;
18224;SDS011;9237;48.590;8.854;2022-09-04T02:20:28;0.70;;;0.70;;
18224;SDS011;9237;48.590;8.854;2022-09-04T02:22:58;0.70;;;0.70;;
18224;SDS011;9237;48.590;8.854;2022-09-04T02:25:37;0.70;;;0.70;;
18224;SDS011;9237;48.590;8.854;2022-09-04T02:28:16;0.70;;;0.70;;
18224;SDS011;9237;48.590;8.854;2022-09-04T02:30:55;0.70;;;0.70;;
18224;SDS011;9237;48.590;8.854;2022-09-04T02:33:32;0.70;;;0.70;;
18224;SDS011;9237;48.590;8.854;2022-09-04T02:36:09;0.70;;;0.70;;
18224;SDS011;9237;48.590;8.854;2022-09-04T02:38:45;0.70;;;0.70;;
18224;SDS011;9237;48.590;8.854;2022-09-04T02:41:19;0.70;;;0.70;;
18224;SDS011;9237;48.590;8.854;2022-09-04T02:44:02;0.77;;;0.77;;
18224;SDS011;9237;48.590;8.854;2022-09-04T02:46:43;0.70;;;0.70;;
18224;SDS011;9237;48.590;8.854;2022-09-04T02:49:20;0.70;;;0.70;;
18224;SDS011;9237;48.590;8.854;2022-09-04T02:51:57;0.70;;;0.70;;
18224;SDS011;9237;48.590;8.854;2022-09-04T02:54:36;0.70;;;0.70;;
18224;SDS011;9237;48.590;8.854;2022-09-04T02:57:15;0.70;;;0.70;;
18224;SDS011;9237;48.590;8.854;2022-09-04T02:59:54;0.70;;;0.70;;
18224;SDS011;9237;48.590;8.854;2022-09-04T03:02:30;0.70;;;0.70;;
18224;SDS011;9237;48.590;8.854;2022-09-04T03:05:04;0.70;;;0.70;;
18224;SDS011;9237;48.590;8.854;2022-09-04T03:07:38;0.70;;;0.70;;
18224;SDS011;9237;48.590;8.854;2022-09-04T03:10:10;0.70;;;0.70;;
18224;SDS011;9237;48.590;8.854;2022-09-04T03:12:42;0.70;;;0.70;;
18224;SDS011;9237;48.590;8.854;2022-09-04T03:15:15;0.70;;;0.70;;
18224;SDS011;9237;48.590;8.854;2022-09-04T03:17:54;0.70;;;0.70;;
18224;SDS011;9237;48.590;8.854;2022-09-04T03:20:29;0.70;;;0.70;;
18224;SDS011;9237;48.590;8.854;2022-09-04T03:23:00;0.70;;;0.70;;
18224;SDS011;9237;48.590;8.854;2022-09-04T03:25:47;0.70;;;0.70;;
18224;SDS011;9237;48.590;8.854;2022-09-04T03:28:24;0.70;;;0.70;;
18224;SDS011;9237;48.590;8.854;2022-09-04T03:31:08;0.70;;;0.70;;
18224;SDS011;9237;48.590;8.854;2022-09-04T03:33:45;0.70;;;0.70;;
18224;SDS011;9237;48.590;8.854;2022-09-04T03:36:20;0.80;;;0.80;;
18224;SDS011;9237;48.590;8.854;2022-09-04T03:38:55;0.70;;;0.70;;
18224;SDS011;9237;48.590;8.854;2022-09-04T03:41:29;0.70;;;0.70;;
18224;SDS011;9237;48.590;8.854;2022-09-04T03:44:08;0.70;;;0.70;;
18224;SDS011;9237;48.590;8.854;2022-09-04T03:46:50;0.70;;;0.70;;
18224;SDS011;9237;48.590;8.854;2022-09-04T03:49:29;0.70;;;0.70;;
18224;SDS011;9237;48.590;8.854;2022-09-04T03:52:10;0.70;;;0.70;;
18224;SDS011;9237;48.590;8.854;2022-09-04T03:54:49;0.70;;;0.70;;
18224;SDS011;9237;48.590;8.854;2022-09-04T03:57:30;0.70;;;0.70;;
18224;SDS011;9237;48.590;8.854;2022-09-04T04:00:07;0.70;;;0.70;;
18224;SDS011;9237;48.590;8.854;2022-09-04T04:02:51;0.70;;;0.70;;
18224;SDS011;9237;48.590;8.854;2022-09-04T04:05:32;0.70;;;0.70;;
18224;SDS011;9237;48.590;8.854;2022-09-04T04:08:18;0.70;;;0.70;;
18224;SDS011;9237;48.590;8.854;2022-09-04T04:11:10;0.70;;;0.70;;
18224;SDS011;9237;48.590;8.854;2022-09-04T04:13:54;0.70;;;0.70;;
18224;SDS011;9237;48.590;8.854;2022-09-04T04:16:34;0.70;;;0.70;;
18224;SDS011;9237;48.590;8.854;2022-09-04T04:19:22;0.70;;;0.70;;
18224;SDS011;9237;48.590;8.854;2022-09-04T04:22:03;0.70;;;0.70;;
18224;SDS011;9237;48.590;8.854;2022-09-04T04:24:47;0.70;;;0.70;;
18224;SDS011;9237;48.590;8.854;2022-09-04T04:27:29;0.70;;;0.70;;
18224;SDS011;9237;48.590;8.854;2022-09-04T04:30:07;0.70;;;0.70;;
18224;SDS011;9237;48.590;8.854;2022-09-04T04:32:49;0.70;;;0.70;;
18224;SDS011;9237;48.590;8.854;2022-09-04T04:35:34;0.70;;;0.70;;
18224;SDS011;9237;48.590;8.854;2022-09-04T04:38:13;0.70;;;0.70;;
18224;SDS011;9237;48.590;8.854;2022-09-04T04:41:03;0.70;;;0.70;;
18224;SDS011;9237;48.590;8.854;2022-09-04T04:43:40;0.70;;;0.70;;
18224;SDS011;9237;48.590;8.854;2022-09-04T04:46:17;0.70;;;0.70;;
18224;SDS011;9237;48.590;8.854;2022-09-04T04:51:50;0.70;;;0.70;;
18224;SDS011;9237;48.590;8.854;2022-09-04T04:54:40;0.70;;;0.70;;
18224;SDS011;9237;48.590;8.854;2022-09-04T04:57:15;0.80;;;0.80;;
18224;SDS011;9237;48.590;8.854;2022-09-04T04:59:52;0.70;;;0.70;;
18224;SDS011;9237;48.590;8.854;2022-09-04T05:02:34;0.70;;;0.70;;
18224;SDS011;9237;48.590;8.854;2022-09-04T05:05:07;0.80;;;0.80;;
18224;SDS011;9237;48.590;8.854;2022-09-04T05:07:39;0.70;;;0.70;;
18224;SDS011;9237;48.590;8.854;2022-09-04T05:10:15;0.77;;;0.77;;
18224;SDS011;9237;48.590;8.854;2022-09-04T05:12:54;0.77;;;0.77;;
18224;SDS011;9237;48.590;8.854;2022-09-04T05:15:28;0.70;;;0.70;;
18224;SDS011;9237;48.590;8.854;2022-09-04T05:18:03;0.70;;;0.70;;
18224;SDS011;9237;48.590;8.854;2022-09-04T05:20:38;0.70;;;0.70;;
18224;SDS011;9237;48.590;8.854;2022-09-04T05:23:15;0.70;;;0.70;;
18224;SDS011;9237;48.590;8.854;2022-09-04T05:25:51;0.70;;;0.70;;
18224;SDS011;9237;48.590;8.854;2022-09-04T05:28:27;0.70;;;0.70;;
18224;SDS011;9237;48.590;8.854;2022-09-04T05:31:03;0.70;;;0.70;;
18224;SDS011;9237;48.590;8.854;2022-09-04T05:33:39;0.70;;;0.70;;
18224;SDS011;9237;48.590;8.854;2022-09-04T05:36:15;0.77;;;0.77;;
18224;SDS011;9237;48.590;8.854;2022-09-04T05:38:46;0.70;;;0.70;;
18224;SDS011;9237;48.590;8.854;2022-09-04T05:41:29;0.70;;;0.70;;
18224;SDS011;9237;48.590;8.854;2022-09-04T05:44:14;0.70;;;0.70;;
18224;SDS011;9237;48.590;8.854;2022-09-04T05:47:00;0.70;;;0.70;;
18224;SDS011;9237;48.590;8.854;2022-09-04T05:49:37;0.70;;;0.70;;
18224;SDS011;9237;48.590;8.854;2022-09-04T05:52:20;0.67;;;0.67;;
18224;SDS011;9237;48.590;8.854;2022-09-04T05:55:19;0.70;;;0.70;;
18224;SDS011;9237;48.590;8.854;2022-09-04T05:58:04;0.70;;;0.70;;
18224;SDS011;9237;48.590;8.854;2022-09-04T06:00:44;0.60;;;0.60;;
18224;SDS011;9237;48.590;8.854;2022-09-04T06:06:19;0.60;;;0.60;;
18224;SDS011;9237;48.590;8.854;2022-09-04T06:08:56;0.60;;;0.60;;
18224;SDS011;9237;48.590;8.854;2022-09-04T06:11:38;0.60;;;0.60;;
18224;SDS011;9237;48.590;8.854;2022-09-04T06:14:22;0.60;;;0.60;;
18224;SDS011;9237;48.590;8.854;2022-09-04T06:17:02;0.60;;;0.60;;
18224;SDS011;9237;48.590;8.854;2022-09-04T06:19:45;0.60;;;0.60;;
18224;SDS011;9237;48.590;8.854;2022-09-04T06:22:27;0.60;;;0.60;;
18224;SDS011;9237;48.590;8.854;2022-09-04T06:28:17;0.60;;;0.60;;
18224;SDS011;9237;48.590;8.854;2022-09-04T06:31:11;0.60;;;0.60;;
18224;SDS011;9237;48.590;8.854;2022-09-04T06:33:55;0.60;;;0.60;;
18224;SDS011;9237;48.590;8.854;2022-09-04T06:36:30;0.60;;;0.60;;
18224;SDS011;9237;48.590;8.854;2022-09-04T06:42:08;0.60;;;0.60;;
18224;SDS011;9237;48.590;8.854;2022-09-04T06:44:49;0.60;;;0.60;;
18224;SDS011;9237;48.590;8.854;2022-09-04T06:47:28;0.60;;;0.60;;
18224;SDS011;9237;48.590;8.854;2022-09-04T06:50:09;0.60;;;0.60;;
18224;SDS011;9237;48.590;8.854;2022-09-04T06:52:46;0.60;;;0.60;;
18224;SDS011;9237;48.590;8.854;2022-09-04T06:55:28;0.60;;;0.60;;
18224;SDS011;9237;48.590;8.854;2022-09-04T06:58:03;0.50;;;0.50;;
18224;SDS011;9237;48.590;8.854;2022-09-04T07:00:43;0.50;;;0.50;;
18224;SDS011;9237;48.590;8.854;2022-09-04T07:06:08;0.50;;;0.50;;
18224;SDS011;9237;48.590;8.854;2022-09-04T07:08:46;0.50;;;0.50;;
18224;SDS011;9237;48.590;8.854;2022-09-04T07:11:23;0.50;;;0.50;;
18224;SDS011;9237;48.590;8.854;2022-09-04T07:14:22;0.50;;;0.50;;
18224;SDS011;9237;48.590;8.854;2022-09-04T07:17:06;0.50;;;0.50;;
18224;SDS011;9237;48.590;8.854;2022-09-04T07:22:52;0.40;;;0.40;;
18224;SDS011;9237;48.590;8.854;2022-09-04T07:25:32;0.40;;;0.40;;
18224;SDS011;9237;48.590;8.854;2022-09-04T07:28:09;0.40;;;0.40;;
18224;SDS011;9237;48.590;8.854;2022-09-04T07:30:44;0.43;;;0.43;;
18224;SDS011;9237;48.590;8.854;2022-09-04T07:33:18;0.40;;;0.40;;
18224;SDS011;9237;48.590;8.854;2022-09-04T07:35:57;0.40;;;0.40;;
18224;SDS011;9237;48.590;8.854;2022-09-04T07:38:33;0.40;;;0.40;;
18224;SDS011;9237;48.590;8.854;2022-09-04T07:41:10;0.47;;;0.47;;
18224;SDS011;9237;48.590;8.854;2022-09-04T07:43:45;0.40;;;0.40;;
18224;SDS011;9237;48.590;8.854;2022-09-04T07:46:20;0.40;;;0.40;;
18224;SDS011;9237;48.590;8.854;2022-09-04T07:48:55;0.40;;;0.40;;
18224;SDS011;9237;48.590;8.854;2022-09-04T07:51:33;0.40;;;0.40;;
18224;SDS011;9237;48.590;8.854;2022-09-04T07:57:08;0.40;;;0.40;;
18224;SDS011;9237;48.590;8.854;2022-09-04T08:00:04;0.40;;;0.40;;
18224;SDS011;9237;48.590;8.854;2022-09-04T08:02:36;0.40;;;0.40;;
18224;SDS011;9237;48.590;8.854;2022-09-04T08:05:18;0.40;;;0.40;;
18224;SDS011;9237;48.590;8.854;2022-09-04T08:08:13;0.40;;;0.40;;
18224;SDS011;9237;48.590;8.854;2022-09-04T08:10:55;0.30;;;0.30;;
18224;SDS011;9237;48.590;8.854;2022-09-04T08:16:57;0.30;;;0.30;;
18224;SDS011;9237;48.590;8.854;2022-09-04T08:19:53;0.30;;;0.30;;
18224;SDS011;9237;48.590;8.854;2022-09-04T08:22:29;0.40;;;0.40;;
18224;SDS011;9237;48.590;8.854;2022-09-04T08:25:09;0.40;;;0.40;;
18224;SDS011;9237;48.590;8.854;2022-09-04T08:27:50;0.40;;;0.40;;
18224;SDS011;9237;48.590;8.854;2022-09-04T08:30:27;0.40;;;0.40;;
18224;SDS011;9237;48.590;8.854;2022-09-04T08:33:09;0.30;;;0.30;;
18224;SDS011;9237;48.590;8.854;2022-09-04T08:35:51;0.30;;;0.30;;
18224;SDS011;9237;48.590;8.854;2022-09-04T08:38:27;0.30;;;0.30;;
18224;SDS011;9237;48.590;8.854;2022-09-04T08:47:32;0.25;;;0.25;;
18224;SDS011;9237;48.590;8.854;2022-09-04T08:50:28;0.30;;;0.30;;
18224;SDS011;9237;48.590;8.854;2022-09-04T08:53:27;0.25;;;0.25;;
18224;SDS011;9237;48.590;8.854;2022-09-04T08:56:15;0.20;;;0.20;;
18224;SDS011;9237;48.590;8.854;2022-09-04T09:17:26;0.30;;;0.30;;
18224;SDS011;9237;48.590;8.854;2022-09-04T09:20:07;0.22;;;0.22;;
18224;SDS011;9237;48.590;8.854;2022-09-04T09:25:50;0.30;;;0.30;;
18224;SDS011;9237;48.590;8.854;2022-09-04T09:28:32;0.30;;;0.30;;
18224;SDS011;9237;48.590;8.854;2022-09-04T09:31:37;0.30;;;0.30;;
18224;SDS011;9237;48.590;8.854;2022-09-04T09:37:29;0.25;;;0.25;;
18224;SDS011;9237;48.590;8.854;2022-09-04T09:40:23;0.20;;;0.20;;
18224;SDS011;9237;48.590;8.854;2022-09-04T09:43:22;0.20;;;0.20;;
18224;SDS011;9237;48.590;8.854;2022-09-04T09:46:20;0.20;;;0.20;;
18224;SDS011;9237;48.590;8.854;2022-09-04T09:49:20;0.25;;;0.25;;
18224;SDS011;9237;48.590;8.854;2022-09-04T09:52:28;0.30;;;0.30;;
18224;SDS011;9237;48.590;8.854;2022-09-04T09:55:27;0.20;;;0.20;;
18224;SDS011;9237;48.590;8.854;2022-09-04T09:58:39;0.20;;;0.20;;
18224;SDS011;9237;48.590;8.854;2022-09-04T10:01:37;0.20;;;0.20;;
18224;SDS011;9237;48.590;8.854;2022-09-04T10:04:20;0.20;;;0.20;;
18224;SDS011;9237;48.590;8.854;2022-09-04T10:07:30;0.20;;;0.20;;
18224;SDS011;9237;48.590;8.854;2022-09-04T10:10:22;0.20;;;0.20;;
18224;SDS011;9237;48.590;8.854;2022-09-04T10:16:10;0.20;;;0.20;;
18224;SDS011;9237;48.590;8.854;2022-09-04T10:19:06;0.20;;;0.20;;
18224;SDS011;9237;48.590;8.854;2022-09-04T10:22:12;0.20;;;0.20;;
18224;SDS011;9237;48.590;8.854;2022-09-04T10:25:03;0.20;;;0.20;;
18224;SDS011;9237;48.590;8.854;2022-09-04T10:28:04;0.20;;;0.20;;
18224;SDS011;9237;48.590;8.854;2022-09-04T10:31:00;0.20;;;0.20;;
18224;SDS011;9237;48.590;8.854;2022-09-04T10:33:45;0.30;;;0.30;;
18224;SDS011;9237;48.590;8.854;2022-09-04T10:36:30;0.20;;;0.20;;
18224;SDS011;9237;48.590;8.854;2022-09-04T10:39:09;0.13;;;0.13;;
18224;SDS011;9237;48.590;8.854;2022-09-04T10:42:04;0.20;;;0.20;;
18224;SDS011;9237;48.590;8.854;2022-09-04T10:44:39;0.20;;;0.20;;
18224;SDS011;9237;48.590;8.854;2022-09-04T10:47:30;0.20;;;0.20;;
18224;SDS011;9237;48.590;8.854;2022-09-04T10:50:23;0.30;;;0.30;;
18224;SDS011;9237;48.590;8.854;2022-09-04T10:56:16;0.30;;;0.30;;
18224;SDS011;9237;48.590;8.854;2022-09-04T10:58:57;0.20;;;0.20;;
18224;SDS011;9237;48.590;8.854;2022-09-04T11:07:54;0.20;;;0.20;;
18224;SDS011;9237;48.590;8.854;2022-09-04T11:10:48;0.20;;;0.20;;
18224;SDS011;9237;48.590;8.854;2022-09-04T11:13:40;0.20;;;0.20;;
18224;SDS011;9237;48.590;8.854;2022-09-04T11:19:35;0.25;;;0.25;;
18224;SDS011;9237;48.590;8.854;2022-09-04T11:28:53;0.20;;;0.20;;
18224;SDS011;9237;48.590;8.854;2022-09-04T11:34:45;0.30;;;0.30;;
18224;SDS011;9237;48.590;8.854;2022-09-04T11:40:29;0.30;;;0.30;;
18224;SDS011;9237;48.590;8.854;2022-09-04T11:43:20;0.30;;;0.30;;
18224;SDS011;9237;48.590;8.854;2022-09-04T11:46:20;0.30;;;0.30;;
18224;SDS011;9237;48.590;8.854;2022-09-04T11:52:14;0.30;;;0.30;;
18224;SDS011;9237;48.590;8.854;2022-09-04T11:57:55;0.40;;;0.40;;
18224;SDS011;9237;48.590;8.854;2022-09-04T12:00:35;0.30;;;0.30;;
18224;SDS011;9237;48.590;8.854;2022-09-04T12:03:17;0.38;;;0.38;;
18224;SDS011;9237;48.590;8.854;2022-09-04T12:06:09;0.40;;;0.40;;
18224;SDS011;9237;48.590;8.854;2022-09-04T12:08:59;0.30;;;0.30;;
18224;SDS011;9237;48.590;8.854;2022-09-04T12:15:05;0.30;;;0.30;;
18224;SDS011;9237;48.590;8.854;2022-09-04T12:17:51;0.40;;;0.40;;
18224;SDS011;9237;48.590;8.854;2022-09-04T12:20:48;0.30;;;0.30;;
18224;SDS011;9237;48.590;8.854;2022-09-04T12:24:00;0.30;;;0.30;;
18224;SDS011;9237;48.590;8.854;2022-09-04T12:26:45;0.40;;;0.40;;
18224;SDS011;9237;48.590;8.854;2022-09-04T12:29:34;0.40;;;0.40;;
18224;SDS011;9237;48.590;8.854;2022-09-04T12:35:34;0.40;;;0.40;;
18224;SDS011;9237;48.590;8.854;2022-09-04T12:38:30;0.40;;;0.40;;
18224;SDS011;9237;48.590;8.854;2022-09-04T12:41:28;0.40;;;0.40;;
18224;SDS011;9237;48.590;8.854;2022-09-04T12:44:03;0.30;;;0.30;;
18224;SDS011;9237;48.590;8.854;2022-09-04T12:46:46;0.30;;;0.30;;
18224;SDS011;9237;48.590;8.854;2022-09-04T12:49:28;0.20;;;0.20;;
18224;SDS011;9237;48.590;8.854;2022-09-04T12:52:11;0.20;;;0.20;;
18224;SDS011;9237;48.590;8.854;2022-09-04T12:54:45;0.20;;;0.20;;
18224;SDS011;9237;48.590;8.854;2022-09-04T12:57:23;0.20;;;0.20;;
18224;SDS011;9237;48.590;8.854;2022-09-04T12:59:59;0.20;;;0.20;;
18224;SDS011;9237;48.590;8.854;2022-09-04T13:02:33;0.20;;;0.20;;
18224;SDS011;9237;48.590;8.854;2022-09-04T13:05:29;0.20;;;0.20;;
18224;SDS011;9237;48.590;8.854;2022-09-04T13:08:10;0.20;;;0.20;;
18224;SDS011;9237;48.590;8.854;2022-09-04T13:10:47;0.20;;;0.20;;
18224;SDS011;9237;48.590;8.854;2022-09-04T13:13:26;0.20;;;0.20;;
18224;SDS011;9237;48.590;8.854;2022-09-04T13:16:01;0.20;;;0.20;;
18224;SDS011;9237;48.590;8.854;2022-09-04T13:18:40;0.20;;;0.20;;
18224;SDS011;9237;48.590;8.854;2022-09-04T13:21:19;0.20;;;0.20;;
18224;SDS011;9237;48.590;8.854;2022-09-04T13:23:56;0.20;;;0.20;;
18224;SDS011;9237;48.590;8.854;2022-09-04T13:26:45;0.20;;;0.20;;
18224;SDS011;9237;48.590;8.854;2022-09-04T13:29:26;0.20;;;0.20;;
18224;SDS011;9237;48.590;8.854;2022-09-04T13:35:02;0.20;;;0.20;;
18224;SDS011;9237;48.590;8.854;2022-09-04T13:37:41;0.20;;;0.20;;
18224;SDS011;9237;48.590;8.854;2022-09-04T13:40:25;0.20;;;0.20;;
18224;SDS011;9237;48.590;8.854;2022-09-04T13:46:02;0.15;;;0.15;;
18224;SDS011;9237;48.590;8.854;2022-09-04T13:48:33;0.20;;;0.20;;
18224;SDS011;9237;48.590;8.854;2022-09-04T13:51:07;0.30;;;0.30;;
18224;SDS011;9237;48.590;8.854;2022-09-04T13:53:39;0.30;;;0.30;;
18224;SDS011;9237;48.590;8.854;2022-09-04T13:56:22;0.30;;;0.30;;
18224;SDS011;9237;48.590;8.854;2022-09-04T13:58:57;0.30;;;0.30;;
18224;SDS011;9237;48.590;8.854;2022-09-04T14:01:32;0.30;;;0.30;;
18224;SDS011;9237;48.590;8.854;2022-09-04T14:04:04;0.30;;;0.30;;
18224;SDS011;9237;48.590;8.854;2022-09-04T14:06:35;0.30;;;0.30;;
18224;SDS011;9237;48.590;8.854;2022-09-04T14:09:04;0.30;;;0.30;;
18224;SDS011;9237;48.590;8.854;2022-09-04T14:11:36;0.30;;;0.30;;
18224;SDS011;9237;48.590;8.854;2022-09-04T14:14:34;0.30;;;0.30;;
18224;SDS011;9237;48.590;8.854;2022-09-04T14:17:26;0.30;;;0.30;;
18224;SDS011;9237;48.590;8.854;2022-09-04T14:20:00;0.40;;;0.40;;
18224;SDS011;9237;48.590;8.854;2022-09-04T14:22:37;0.40;;;0.40;;
18224;SDS011;9237;48.590;8.854;2022-09-04T14:25:13;0.30;;;0.30;;
18224;SDS011;9237;48.590;8.854;2022-09-04T14:27:46;0.30;;;0.30;;
18224;SDS011;9237;48.590;8.854;2022-09-04T14:30:20;0.20;;;0.20;;
18224;SDS011;9237;48.590;8.854;2022-09-04T14:32:51;0.30;;;0.30;;
18224;SDS011;9237;48.590;8.854;2022-09-04T14:35:28;0.20;;;0.20;;
18224;SDS011;9237;48.590;8.854;2022-09-04T14:38:07;0.30;;;0.30;;
18224;SDS011;9237;48.590;8.854;2022-09-04T14:41:03;0.20;;;0.20;;
18224;SDS011;9237;48.590;8.854;2022-09-04T14:43:41;0.20;;;0.20;;
18224;SDS011;9237;48.590;8.854;2022-09-04T14:46:24;0.20;;;0.20;;
18224;SDS011;9237;48.590;8.854;2022-09-04T14:48:59;0.20;;;0.20;;
18224;SDS011;9237;48.590;8.854;2022-09-04T14:51:31;0.20;;;0.20;;
18224;SDS011;9237;48.590;8.854;2022-09-04T14:54:00;0.20;;;0.20;;
18224;SDS011;9237;48.590;8.854;2022-09-04T14:56:32;0.30;;;0.30;;
18224;SDS011;9237;48.590;8.854;2022-09-04T14:59:07;0.20;;;0.20;;
18224;SDS011;9237;48.590;8.854;2022-09-04T15:01:53;0.20;;;0.20;;
18224;SDS011;9237;48.590;8.854;2022-09-04T15:04:29;0.20;;;0.20;;
18224;SDS011;9237;48.590;8.854;2022-09-04T15:07:01;0.20;;;0.20;;
18224;SDS011;9237;48.590;8.854;2022-09-04T15:09:45;0.25;;;0.25;;
18224;SDS011;9237;48.590;8.854;2022-09-04T15:12:17;0.20;;;0.20;;
18224;SDS011;9237;48.590;8.854;2022-09-04T15:14:48;0.20;;;0.20;;
18224;SDS011;9237;48.590;8.854;2022-09-04T15:17:21;0.30;;;0.30;;
18224;SDS011;9237;48.590;8.854;2022-09-04T15:19:53;0.28;;;0.28;;
18224;SDS011;9237;48.590;8.854;2022-09-04T15:22:26;0.30;;;0.30;;
18224;SDS011;9237;48.590;8.854;2022-09-04T15:24:59;0.30;;;0.30;;
18224;SDS011;9237;48.590;8.854;2022-09-04T15:27:34;0.30;;;0.30;;
18224;SDS011;9237;48.590;8.854;2022-09-04T15:30:14;0.30;;;0.30;;
18224;SDS011;9237;48.590;8.854;2022-09-04T15:32:44;0.30;;;0.30;;
18224;SDS011;9237;48.590;8.854;2022-09-04T15:35:14;0.30;;;0.30;;
18224;SDS011;9237;48.590;8.854;2022-09-04T15:37:47;0.40;;;0.40;;
18224;SDS011;9237;48.590;8.854;2022-09-04T15:40:20;0.40;;;0.40;;
18224;SDS011;9237;48.590;8.854;2022-09-04T15:42:55;0.40;;;0.40;;
18224;SDS011;9237;48.590;8.854;2022-09-04T15:45:30;0.40;;;0.40;;
18224;SDS011;9237;48.590;8.854;2022-09-04T15:48:07;0.40;;;0.40;;
18224;SDS011;9237;48.590;8.854;2022-09-04T15:50:49;0.40;;;0.40;;
18224;SDS011;9237;48.590;8.854;2022-09-04T15:53:22;0.30;;;0.30;;
18224;SDS011;9237;48.590;8.854;2022-09-04T15:55:58;0.40;;;0.40;;
18224;SDS011;9237;48.590;8.854;2022-09-04T15:58:34;0.40;;;0.40;;
18224;SDS011;9237;48.590;8.854;2022-09-04T16:01:12;0.40;;;0.40;;
18224;SDS011;9237;48.590;8.854;2022-09-04T16:03:44;0.40;;;0.40;;
18224;SDS011;9237;48.590;8.854;2022-09-04T16:06:21;0.40;;;0.40;;
18224;SDS011;9237;48.590;8.854;2022-09-04T16:08:54;0.40;;;0.40;;
18224;SDS011;9237;48.590;8.854;2022-09-04T16:11:25;0.40;;;0.40;;
18224;SDS011;9237;48.590;8.854;2022-09-04T16:13:58;0.40;;;0.40;;
18224;SDS011;9237;48.590;8.854;2022-09-04T16:16:28;0.35;;;0.35;;
18224;SDS011;9237;48.590;8.854;2022-09-04T16:19:00;0.40;;;0.40;;
18224;SDS011;9237;48.590;8.854;2022-09-04T16:21:38;0.30;;;0.30;;
18224;SDS011;9237;48.590;8.854;2022-09-04T16:24:10;0.40;;;0.40;;
18224;SDS011;9237;48.590;8.854;2022-09-04T16:26:40;0.40;;;0.40;;
18224;SDS011;9237;48.590;8.854;2022-09-04T16:29:17;0.40;;;0.40;;
18224;SDS011;9237;48.590;8.854;2022-09-04T16:31:53;0.40;;;0.40;;
18224;SDS011;9237;48.590;8.854;2022-09-04T16:34:23;0.40;;;0.40;;
18224;SDS011;9237;48.590;8.854;2022-09-04T16:36:53;0.40;;;0.40;;
18224;SDS011;9237;48.590;8.854;2022-09-04T16:39:27;0.40;;;0.40;;
18224;SDS011;9237;48.590;8.854;2022-09-04T16:41:57;0.40;;;0.40;;
18224;SDS011;9237;48.590;8.854;2022-09-04T16:44:37;0.40;;;0.40;;
18224;SDS011;9237;48.590;8.854;2022-09-04T16:47:10;0.40;;;0.40;;
18224;SDS011;9237;48.590;8.854;2022-09-04T16:49:45;0.40;;;0.40;;
18224;SDS011;9237;48.590;8.854;2022-09-04T16:52:23;0.40;;;0.40;;
18224;SDS011;9237;48.590;8.854;2022-09-04T16:55:00;0.40;;;0.40;;
18224;SDS011;9237;48.590;8.854;2022-09-04T16:57:32;0.40;;;0.40;;
18224;SDS011;9237;48.590;8.854;2022-09-04T17:00:06;0.43;;;0.43;;
18224;SDS011;9237;48.590;8.854;2022-09-04T17:02:40;0.40;;;0.40;;
18224;SDS011;9237;48.590;8.854;2022-09-04T17:05:17;0.40;;;0.40;;
18224;SDS011;9237;48.590;8.854;2022-09-04T17:07:53;0.40;;;0.40;;
18224;SDS011;9237;48.590;8.854;2022-09-04T17:10:34;0.40;;;0.40;;
18224;SDS011;9237;48.590;8.854;2022-09-04T17:13:07;0.40;;;0.40;;
18224;SDS011;9237;48.590;8.854;2022-09-04T17:15:41;0.40;;;0.40;;
18224;SDS011;9237;48.590;8.854;2022-09-04T17:18:13;0.40;;;0.40;;
18224;SDS011;9237;48.590;8.854;2022-09-04T17:20:50;0.40;;;0.40;;
18224;SDS011;9237;48.590;8.854;2022-09-04T17:23:24;0.40;;;0.40;;
18224;SDS011;9237;48.590;8.854;2022-09-04T17:25:56;0.40;;;0.40;;
18224;SDS011;9237;48.590;8.854;2022-09-04T17:28:48;0.40;;;0.40;;
18224;SDS011;9237;48.590;8.854;2022-09-04T17:31:24;0.50;;;0.50;;
18224;SDS011;9237;48.590;8.854;2022-09-04T17:33:59;0.50;;;0.50;;
18224;SDS011;9237;48.590;8.854;2022-09-04T17:36:32;0.40;;;0.40;;
18224;SDS011;9237;48.590;8.854;2022-09-04T17:39:06;0.50;;;0.50;;
18224;SDS011;9237;48.590;8.854;2022-09-04T17:41:38;0.40;;;0.40;;
18224;SDS011;9237;48.590;8.854;2022-09-04T17:44:23;0.50;;;0.50;;
18224;SDS011;9237;48.590;8.854;2022-09-04T17:47:04;0.50;;;0.50;;
18224;SDS011;9237;48.590;8.854;2022-09-04T17:49:41;0.40;;;0.40;;
18224;SDS011;9237;48.590;8.854;2022-09-04T17:52:19;0.50;;;0.50;;
18224;SDS011;9237;48.590;8.854;2022-09-04T17:54:47;0.47;;;0.47;;
18224;SDS011;9237;48.590;8.854;2022-09-04T17:57:18;0.50;;;0.50;;
18224;SDS011;9237;48.590;8.854;2022-09-04T17:59:52;0.50;;;0.50;;
18224;SDS011;9237;48.590;8.854;2022-09-04T18:02:29;0.50;;;0.50;;
18224;SDS011;9237;48.590;8.854;2022-09-04T18:05:09;0.50;;;0.50;;